sensor_id;sensor_type;location;lat;lon;timestamp;temperature;humidity
37642;DHT22;23486;51.956;5.888;2024-03-22T00:01:14;11.00;99.90
37642;DHT22;23486;51.956;5.888;2024-03-22T00:03:39;11.10;99.90
37642;DHT22;23486;51.956;5.888;2024-03-22T00:06:05;11.10;99.90
37642;DHT22;23486;51.956;5.888;2024-03-22T00:08:30;11.20;99.90
37642;DHT22;23486;51.956;5.888;2024-03-22T00:10:56;11.20;99.90
37642;DHT22;23486;51.956;5.888;2024-03-22T00:13:21;11.20;99.90
37642;DHT22;23486;51.956;5.888;2024-03-22T00:15:47;11.30;99.90
37642;DHT22;23486;51.956;5.888;2024-03-22T00:18:12;11.30;99.90
37642;DHT22;23486;51.956;5.888;2024-03-22T00:20:37;11.30;99.90
37642;DHT22;23486;51.956;5.888;2024-03-22T00:23:03;11.30;99.90
37642;DHT22;23486;51.956;5.888;2024-03-22T00:25:28;11.30;99.90
37642;DHT22;23486;51.956;5.888;2024-03-22T00:27:54;11.40;99.90
37642;DHT22;23486;51.956;5.888;2024-03-22T00:30:20;11.30;99.90
37642;DHT22;23486;51.956;5.888;2024-03-22T00:32:45;11.30;99.90
37642;DHT22;23486;51.956;5.888;2024-03-22T00:35:11;11.40;99.90
37642;DHT22;23486;51.956;5.888;2024-03-22T00:37:36;11.40;99.90
37642;DHT22;23486;51.956;5.888;2024-03-22T00:40:02;11.40;99.90
37642;DHT22;23486;51.956;5.888;2024-03-22T00:42:27;11.40;99.90
37642;DHT22;23486;51.956;5.888;2024-03-22T00:44:53;11.40;99.90
37642;DHT22;23486;51.956;5.888;2024-03-22T00:47:20;11.40;99.90
37642;DHT22;23486;51.956;5.888;2024-03-22T00:49:45;11.30;99.90
37642;DHT22;23486;51.956;5.888;2024-03-22T00:52:11;11.40;99.90
37642;DHT22;23486;51.956;5.888;2024-03-22T00:54:36;11.40;99.90
37642;DHT22;23486;51.956;5.888;2024-03-22T00:57:04;11.30;99.90
37642;DHT22;23486;51.956;5.888;2024-03-22T00:59:30;11.30;99.90
37642;DHT22;23486;51.956;5.888;2024-03-22T01:01:55;11.30;99.90
37642;DHT22;23486;51.956;5.888;2024-03-22T01:04:21;11.30;99.90
37642;DHT22;23486;51.956;5.888;2024-03-22T01:06:46;11.30;99.90
37642;DHT22;23486;51.956;5.888;2024-03-22T01:09:11;11.30;99.90
37642;DHT22;23486;51.956;5.888;2024-03-22T01:11:37;11.30;99.90
37642;DHT22;23486;51.956;5.888;2024-03-22T01:14:04;11.30;99.90
37642;DHT22;23486;51.956;5.888;2024-03-22T01:16:29;11.30;99.90
37642;DHT22;23486;51.956;5.888;2024-03-22T01:18:55;11.30;99.90
37642;DHT22;23486;51.956;5.888;2024-03-22T01:21:20;11.30;99.90
37642;DHT22;23486;51.956;5.888;2024-03-22T01:23:51;11.30;99.90
37642;DHT22;23486;51.956;5.888;2024-03-22T01:26:16;11.20;99.90
37642;DHT22;23486;51.956;5.888;2024-03-22T01:28:42;11.20;99.90
37642;DHT22;23486;51.956;5.888;2024-03-22T01:31:07;11.20;99.90
37642;DHT22;23486;51.956;5.888;2024-03-22T01:33:33;11.20;99.90
37642;DHT22;23486;51.956;5.888;2024-03-22T01:35:58;11.20;99.90
37642;DHT22;23486;51.956;5.888;2024-03-22T01:38:24;11.10;99.90
37642;DHT22;23486;51.956;5.888;2024-03-22T01:40:49;11.10;99.90
37642;DHT22;23486;51.956;5.888;2024-03-22T01:43:15;11.10;99.90
37642;DHT22;23486;51.956;5.888;2024-03-22T01:45:40;11.10;99.90
37642;DHT22;23486;51.956;5.888;2024-03-22T01:48:06;11.10;99.90
37642;DHT22;23486;51.956;5.888;2024-03-22T01:50:32;11.10;99.90
37642;DHT22;23486;51.956;5.888;2024-03-22T01:52:57;11.10;99.90
37642;DHT22;23486;51.956;5.888;2024-03-22T01:55:23;11.10;99.90
37642;DHT22;23486;51.956;5.888;2024-03-22T01:57:49;11.10;99.90
37642;DHT22;23486;51.956;5.888;2024-03-22T02:00:14;11.10;99.90
37642;DHT22;23486;51.956;5.888;2024-03-22T02:02:40;11.00;99.90
37642;DHT22;23486;51.956;5.888;2024-03-22T02:05:12;11.00;99.90
37642;DHT22;23486;51.956;5.888;2024-03-22T02:07:38;11.00;99.90
37642;DHT22;23486;51.956;5.888;2024-03-22T02:10:03;11.00;99.90
37642;DHT22;23486;51.956;5.888;2024-03-22T02:12:29;11.00;99.90
37642;DHT22;23486;51.956;5.888;2024-03-22T02:14:57;11.10;99.90
37642;DHT22;23486;51.956;5.888;2024-03-22T02:17:23;11.00;99.90
37642;DHT22;23486;51.956;5.888;2024-03-22T02:19:48;11.00;99.90
37642;DHT22;23486;51.956;5.888;2024-03-22T02:22:14;11.00;99.90
37642;DHT22;23486;51.956;5.888;2024-03-22T02:24:39;11.10;99.90
37642;DHT22;23486;51.956;5.888;2024-03-22T02:27:05;11.10;99.90
37642;DHT22;23486;51.956;5.888;2024-03-22T02:29:30;11.00;99.90
37642;DHT22;23486;51.956;5.888;2024-03-22T02:31:56;11.10;99.90
37642;DHT22;23486;51.956;5.888;2024-03-22T02:34:23;11.00;99.90
37642;DHT22;23486;51.956;5.888;2024-03-22T02:36:49;11.10;99.90
37642;DHT22;23486;51.956;5.888;2024-03-22T02:39:14;11.10;99.90
37642;DHT22;23486;51.956;5.888;2024-03-22T02:41:40;11.20;99.90
37642;DHT22;23486;51.956;5.888;2024-03-22T02:44:05;11.10;99.90
37642;DHT22;23486;51.956;5.888;2024-03-22T02:46:31;11.20;99.90
37642;DHT22;23486;51.956;5.888;2024-03-22T02:48:56;11.20;99.90
37642;DHT22;23486;51.956;5.888;2024-03-22T02:51:22;11.20;99.90
37642;DHT22;23486;51.956;5.888;2024-03-22T02:53:47;11.20;99.90
37642;DHT22;23486;51.956;5.888;2024-03-22T02:56:13;11.20;99.90
37642;DHT22;23486;51.956;5.888;2024-03-22T02:58:38;11.10;99.90
37642;DHT22;23486;51.956;5.888;2024-03-22T03:01:04;11.20;99.90
37642;DHT22;23486;51.956;5.888;2024-03-22T03:03:31;11.20;99.90
37642;DHT22;23486;51.956;5.888;2024-03-22T03:05:56;11.20;99.90
37642;DHT22;23486;51.956;5.888;2024-03-22T03:08:22;11.20;99.90
37642;DHT22;23486;51.956;5.888;2024-03-22T03:10:47;11.20;99.90
37642;DHT22;23486;51.956;5.888;2024-03-22T03:13:12;11.20;99.90
37642;DHT22;23486;51.956;5.888;2024-03-22T03:15:38;11.20;99.90
37642;DHT22;23486;51.956;5.888;2024-03-22T03:18:03;11.10;99.90
37642;DHT22;23486;51.956;5.888;2024-03-22T03:20:29;11.10;99.90
37642;DHT22;23486;51.956;5.888;2024-03-22T03:22:54;11.10;99.90
37642;DHT22;23486;51.956;5.888;2024-03-22T03:25:20;11.20;99.90
37642;DHT22;23486;51.956;5.888;2024-03-22T03:27:46;11.10;99.90
37642;DHT22;23486;51.956;5.888;2024-03-22T03:30:11;11.10;99.90
37642;DHT22;23486;51.956;5.888;2024-03-22T03:32:37;11.10;99.90
37642;DHT22;23486;51.956;5.888;2024-03-22T03:35:02;11.10;99.90
37642;DHT22;23486;51.956;5.888;2024-03-22T03:37:28;11.10;99.90
37642;DHT22;23486;51.956;5.888;2024-03-22T03:39:53;11.00;99.90
37642;DHT22;23486;51.956;5.888;2024-03-22T03:42:19;11.10;99.90
37642;DHT22;23486;51.956;5.888;2024-03-22T03:44:44;11.10;99.90
37642;DHT22;23486;51.956;5.888;2024-03-22T03:47:10;11.00;99.90
37642;DHT22;23486;51.956;5.888;2024-03-22T03:49:35;11.10;99.90
37642;DHT22;23486;51.956;5.888;2024-03-22T03:52:01;11.10;99.90
37642;DHT22;23486;51.956;5.888;2024-03-22T03:54:26;11.10;99.90
37642;DHT22;23486;51.956;5.888;2024-03-22T03:56:52;11.10;99.90
37642;DHT22;23486;51.956;5.888;2024-03-22T03:59:17;11.10;99.90
37642;DHT22;23486;51.956;5.888;2024-03-22T04:01:43;11.10;99.90
37642;DHT22;23486;51.956;5.888;2024-03-22T04:04:08;11.20;99.90
37642;DHT22;23486;51.956;5.888;2024-03-22T04:06:34;11.20;99.90
37642;DHT22;23486;51.956;5.888;2024-03-22T04:08:59;11.10;99.90
37642;DHT22;23486;51.956;5.888;2024-03-22T04:11:26;11.20;99.90
37642;DHT22;23486;51.956;5.888;2024-03-22T04:13:52;11.20;99.90
37642;DHT22;23486;51.956;5.888;2024-03-22T04:16:17;11.20;99.90
37642;DHT22;23486;51.956;5.888;2024-03-22T04:18:43;11.20;99.90
37642;DHT22;23486;51.956;5.888;2024-03-22T04:21:08;11.20;99.90
37642;DHT22;23486;51.956;5.888;2024-03-22T04:23:34;11.20;99.90
37642;DHT22;23486;51.956;5.888;2024-03-22T04:26:00;11.20;99.90
37642;DHT22;23486;51.956;5.888;2024-03-22T04:28:26;11.20;99.90
37642;DHT22;23486;51.956;5.888;2024-03-22T04:30:55;11.20;99.90
37642;DHT22;23486;51.956;5.888;2024-03-22T04:33:22;11.20;99.90
37642;DHT22;23486;51.956;5.888;2024-03-22T04:35:47;11.20;99.90
37642;DHT22;23486;51.956;5.888;2024-03-22T04:38:15;11.20;99.90
37642;DHT22;23486;51.956;5.888;2024-03-22T04:40:40;11.20;99.90
37642;DHT22;23486;51.956;5.888;2024-03-22T04:43:06;11.20;99.90
37642;DHT22;23486;51.956;5.888;2024-03-22T04:45:32;11.20;99.90
37642;DHT22;23486;51.956;5.888;2024-03-22T04:47:57;11.10;99.90
37642;DHT22;23486;51.956;5.888;2024-03-22T04:50:22;11.10;99.90
37642;DHT22;23486;51.956;5.888;2024-03-22T04:52:48;11.10;99.90
37642;DHT22;23486;51.956;5.888;2024-03-22T04:55:13;11.20;99.90
37642;DHT22;23486;51.956;5.888;2024-03-22T04:57:39;11.10;99.90
37642;DHT22;23486;51.956;5.888;2024-03-22T05:00:04;11.10;99.90
37642;DHT22;23486;51.956;5.888;2024-03-22T05:02:33;11.10;99.90
37642;DHT22;23486;51.956;5.888;2024-03-22T05:04:58;11.10;99.90
37642;DHT22;23486;51.956;5.888;2024-03-22T05:07:23;11.10;99.90
37642;DHT22;23486;51.956;5.888;2024-03-22T05:09:49;11.00;99.90
37642;DHT22;23486;51.956;5.888;2024-03-22T05:12:14;11.00;99.90
37642;DHT22;23486;51.956;5.888;2024-03-22T05:14:40;11.00;99.90
37642;DHT22;23486;51.956;5.888;2024-03-22T05:17:05;11.00;99.90
37642;DHT22;23486;51.956;5.888;2024-03-22T05:19:31;10.90;99.90
37642;DHT22;23486;51.956;5.888;2024-03-22T05:21:56;11.00;99.90
37642;DHT22;23486;51.956;5.888;2024-03-22T05:24:22;10.90;99.90
37642;DHT22;23486;51.956;5.888;2024-03-22T05:26:47;10.90;99.90
37642;DHT22;23486;51.956;5.888;2024-03-22T05:29:13;10.90;99.90
37642;DHT22;23486;51.956;5.888;2024-03-22T05:31:46;10.90;99.90
37642;DHT22;23486;51.956;5.888;2024-03-22T05:34:13;10.90;99.90
37642;DHT22;23486;51.956;5.888;2024-03-22T05:36:40;10.80;99.90
37642;DHT22;23486;51.956;5.888;2024-03-22T05:39:05;10.90;99.90
37642;DHT22;23486;51.956;5.888;2024-03-22T05:41:30;10.80;99.90
37642;DHT22;23486;51.956;5.888;2024-03-22T05:43:56;10.80;99.90
37642;DHT22;23486;51.956;5.888;2024-03-22T05:46:21;10.80;99.90
37642;DHT22;23486;51.956;5.888;2024-03-22T05:48:47;10.80;99.90
37642;DHT22;23486;51.956;5.888;2024-03-22T05:51:14;10.70;99.90
37642;DHT22;23486;51.956;5.888;2024-03-22T05:53:39;10.80;99.90
37642;DHT22;23486;51.956;5.888;2024-03-22T05:56:05;10.80;99.90
37642;DHT22;23486;51.956;5.888;2024-03-22T05:58:30;10.80;99.90
37642;DHT22;23486;51.956;5.888;2024-03-22T06:00:56;10.80;99.90
37642;DHT22;23486;51.956;5.888;2024-03-22T06:03:21;10.80;99.90
37642;DHT22;23486;51.956;5.888;2024-03-22T06:05:47;10.80;99.90
37642;DHT22;23486;51.956;5.888;2024-03-22T06:08:13;10.80;99.90
37642;DHT22;23486;51.956;5.888;2024-03-22T06:10:38;10.70;99.90
37642;DHT22;23486;51.956;5.888;2024-03-22T06:13:04;10.80;99.90
37642;DHT22;23486;51.956;5.888;2024-03-22T06:15:29;10.80;99.90
37642;DHT22;23486;51.956;5.888;2024-03-22T06:17:55;10.70;99.90
37642;DHT22;23486;51.956;5.888;2024-03-22T06:20:20;10.80;99.90
37642;DHT22;23486;51.956;5.888;2024-03-22T06:22:45;10.80;99.90
37642;DHT22;23486;51.956;5.888;2024-03-22T06:25:11;10.80;99.90
37642;DHT22;23486;51.956;5.888;2024-03-22T06:27:36;10.80;99.90
37642;DHT22;23486;51.956;5.888;2024-03-22T06:30:02;10.90;99.90
37642;DHT22;23486;51.956;5.888;2024-03-22T06:32:28;10.80;99.90
37642;DHT22;23486;51.956;5.888;2024-03-22T06:34:54;10.80;99.90
37642;DHT22;23486;51.956;5.888;2024-03-22T06:37:19;10.80;99.90
37642;DHT22;23486;51.956;5.888;2024-03-22T06:39:45;10.80;99.90
37642;DHT22;23486;51.956;5.888;2024-03-22T06:42:10;10.80;99.90
37642;DHT22;23486;51.956;5.888;2024-03-22T06:44:36;10.80;99.90
37642;DHT22;23486;51.956;5.888;2024-03-22T06:47:01;10.90;99.90
37642;DHT22;23486;51.956;5.888;2024-03-22T06:49:27;10.80;99.90
37642;DHT22;23486;51.956;5.888;2024-03-22T06:51:53;10.90;99.90
37642;DHT22;23486;51.956;5.888;2024-03-22T06:54:18;10.90;99.90
37642;DHT22;23486;51.956;5.888;2024-03-22T06:56:43;10.90;99.90
37642;DHT22;23486;51.956;5.888;2024-03-22T06:59:09;10.90;99.90
37642;DHT22;23486;51.956;5.888;2024-03-22T07:01:34;10.90;99.90
37642;DHT22;23486;51.956;5.888;2024-03-22T07:04:00;10.90;99.90
37642;DHT22;23486;51.956;5.888;2024-03-22T07:06:25;11.00;99.90
37642;DHT22;23486;51.956;5.888;2024-03-22T07:08:51;11.00;99.90
37642;DHT22;23486;51.956;5.888;2024-03-22T07:11:17;11.00;99.90
37642;DHT22;23486;51.956;5.888;2024-03-22T07:13:42;11.00;99.90
37642;DHT22;23486;51.956;5.888;2024-03-22T07:16:08;11.00;99.90
37642;DHT22;23486;51.956;5.888;2024-03-22T07:18:33;11.00;99.90
37642;DHT22;23486;51.956;5.888;2024-03-22T07:20:58;11.00;99.90
37642;DHT22;23486;51.956;5.888;2024-03-22T07:23:27;11.10;99.90
37642;DHT22;23486;51.956;5.888;2024-03-22T07:25:52;11.10;99.90
37642;DHT22;23486;51.956;5.888;2024-03-22T07:28:20;11.20;99.90
37642;DHT22;23486;51.956;5.888;2024-03-22T07:30:46;11.30;99.90
37642;DHT22;23486;51.956;5.888;2024-03-22T07:33:12;11.40;99.90
37642;DHT22;23486;51.956;5.888;2024-03-22T07:35:43;11.40;99.90
37642;DHT22;23486;51.956;5.888;2024-03-22T07:38:09;11.50;99.90
37642;DHT22;23486;51.956;5.888;2024-03-22T07:40:35;11.50;99.90
37642;DHT22;23486;51.956;5.888;2024-03-22T07:43:00;11.50;99.90
37642;DHT22;23486;51.956;5.888;2024-03-22T07:45:31;11.50;99.90
37642;DHT22;23486;51.956;5.888;2024-03-22T07:47:57;11.50;99.90
37642;DHT22;23486;51.956;5.888;2024-03-22T07:50:22;11.40;99.90
37642;DHT22;23486;51.956;5.888;2024-03-22T07:52:48;11.50;99.90
37642;DHT22;23486;51.956;5.888;2024-03-22T07:55:13;11.40;99.90
37642;DHT22;23486;51.956;5.888;2024-03-22T07:57:39;11.40;99.90
37642;DHT22;23486;51.956;5.888;2024-03-22T08:00:04;11.40;99.90
37642;DHT22;23486;51.956;5.888;2024-03-22T08:02:30;11.40;99.90
37642;DHT22;23486;51.956;5.888;2024-03-22T08:04:55;11.40;99.90
37642;DHT22;23486;51.956;5.888;2024-03-22T08:07:21;11.40;99.90
37642;DHT22;23486;51.956;5.888;2024-03-22T08:09:47;11.50;99.90
37642;DHT22;23486;51.956;5.888;2024-03-22T08:12:13;11.50;99.90
37642;DHT22;23486;51.956;5.888;2024-03-22T08:14:38;11.50;99.90
37642;DHT22;23486;51.956;5.888;2024-03-22T08:17:04;11.60;99.90
37642;DHT22;23486;51.956;5.888;2024-03-22T08:19:29;11.60;99.90
37642;DHT22;23486;51.956;5.888;2024-03-22T08:21:57;11.60;99.90
37642;DHT22;23486;51.956;5.888;2024-03-22T08:24:23;11.60;99.90
37642;DHT22;23486;51.956;5.888;2024-03-22T08:26:48;11.60;99.90
37642;DHT22;23486;51.956;5.888;2024-03-22T08:29:15;11.70;99.90
37642;DHT22;23486;51.956;5.888;2024-03-22T08:31:41;11.60;99.90
37642;DHT22;23486;51.956;5.888;2024-03-22T08:34:07;11.60;99.90
37642;DHT22;23486;51.956;5.888;2024-03-22T08:36:34;11.60;99.90
37642;DHT22;23486;51.956;5.888;2024-03-22T08:38:59;11.60;99.90
37642;DHT22;23486;51.956;5.888;2024-03-22T08:41:25;11.60;99.90
37642;DHT22;23486;51.956;5.888;2024-03-22T08:43:51;11.60;99.90
37642;DHT22;23486;51.956;5.888;2024-03-22T08:46:16;11.60;99.90
37642;DHT22;23486;51.956;5.888;2024-03-22T08:48:42;11.60;99.90
37642;DHT22;23486;51.956;5.888;2024-03-22T08:51:07;11.50;99.90
37642;DHT22;23486;51.956;5.888;2024-03-22T08:53:33;11.50;99.90
37642;DHT22;23486;51.956;5.888;2024-03-22T08:55:58;11.50;99.90
37642;DHT22;23486;51.956;5.888;2024-03-22T08:58:24;11.50;99.90
37642;DHT22;23486;51.956;5.888;2024-03-22T09:00:49;11.50;99.90
37642;DHT22;23486;51.956;5.888;2024-03-22T09:03:17;11.40;99.90
37642;DHT22;23486;51.956;5.888;2024-03-22T09:05:43;11.40;99.90
37642;DHT22;23486;51.956;5.888;2024-03-22T09:08:09;11.40;99.90
37642;DHT22;23486;51.956;5.888;2024-03-22T09:10:34;11.40;99.90
37642;DHT22;23486;51.956;5.888;2024-03-22T09:13:00;11.40;99.90
37642;DHT22;23486;51.956;5.888;2024-03-22T09:15:25;11.40;99.90
37642;DHT22;23486;51.956;5.888;2024-03-22T09:17:53;11.30;99.90
37642;DHT22;23486;51.956;5.888;2024-03-22T09:20:19;11.30;99.90
37642;DHT22;23486;51.956;5.888;2024-03-22T09:22:44;11.40;99.90
37642;DHT22;23486;51.956;5.888;2024-03-22T09:25:10;11.30;99.90
37642;DHT22;23486;51.956;5.888;2024-03-22T09:27:35;11.30;99.90
37642;DHT22;23486;51.956;5.888;2024-03-22T09:30:01;11.30;99.90
37642;DHT22;23486;51.956;5.888;2024-03-22T09:32:29;11.20;99.90
37642;DHT22;23486;51.956;5.888;2024-03-22T09:34:56;11.30;99.90
37642;DHT22;23486;51.956;5.888;2024-03-22T09:37:22;11.20;99.90
37642;DHT22;23486;51.956;5.888;2024-03-22T09:39:47;11.20;99.90
37642;DHT22;23486;51.956;5.888;2024-03-22T09:42:15;11.20;99.90
37642;DHT22;23486;51.956;5.888;2024-03-22T09:44:42;11.10;99.90
37642;DHT22;23486;51.956;5.888;2024-03-22T09:47:09;11.20;99.90
37642;DHT22;23486;51.956;5.888;2024-03-22T09:49:36;11.20;99.90
37642;DHT22;23486;51.956;5.888;2024-03-22T09:52:01;11.20;99.90
37642;DHT22;23486;51.956;5.888;2024-03-22T09:54:27;11.20;99.90
37642;DHT22;23486;51.956;5.888;2024-03-22T09:56:53;11.20;99.90
37642;DHT22;23486;51.956;5.888;2024-03-22T09:59:19;11.20;99.90
37642;DHT22;23486;51.956;5.888;2024-03-22T10:01:44;11.20;99.90
37642;DHT22;23486;51.956;5.888;2024-03-22T10:04:11;11.30;99.90
37642;DHT22;23486;51.956;5.888;2024-03-22T10:06:36;11.30;99.90
37642;DHT22;23486;51.956;5.888;2024-03-22T10:09:02;11.30;99.90
37642;DHT22;23486;51.956;5.888;2024-03-22T10:11:29;11.30;99.90
37642;DHT22;23486;51.956;5.888;2024-03-22T10:13:55;11.30;99.90
37642;DHT22;23486;51.956;5.888;2024-03-22T10:16:23;11.30;99.90
37642;DHT22;23486;51.956;5.888;2024-03-22T10:18:49;11.30;99.90
37642;DHT22;23486;51.956;5.888;2024-03-22T10:21:17;11.40;99.90
37642;DHT22;23486;51.956;5.888;2024-03-22T10:23:43;11.40;99.90
37642;DHT22;23486;51.956;5.888;2024-03-22T10:26:09;11.40;99.90
37642;DHT22;23486;51.956;5.888;2024-03-22T10:28:35;11.40;99.90
37642;DHT22;23486;51.956;5.888;2024-03-22T10:31:01;11.40;99.90
37642;DHT22;23486;51.956;5.888;2024-03-22T10:33:26;11.40;99.90
37642;DHT22;23486;51.956;5.888;2024-03-22T10:35:53;11.40;99.90
37642;DHT22;23486;51.956;5.888;2024-03-22T10:38:19;11.30;99.90
37642;DHT22;23486;51.956;5.888;2024-03-22T10:40:45;11.30;99.90
37642;DHT22;23486;51.956;5.888;2024-03-22T10:43:12;11.30;99.90
37642;DHT22;23486;51.956;5.888;2024-03-22T10:45:38;11.30;99.90
37642;DHT22;23486;51.956;5.888;2024-03-22T10:48:03;11.30;99.90
37642;DHT22;23486;51.956;5.888;2024-03-22T10:50:33;11.20;99.90
37642;DHT22;23486;51.956;5.888;2024-03-22T10:52:59;11.30;99.90
37642;DHT22;23486;51.956;5.888;2024-03-22T10:55:33;11.30;99.90
37642;DHT22;23486;51.956;5.888;2024-03-22T10:57:59;11.30;99.90
37642;DHT22;23486;51.956;5.888;2024-03-22T11:00:32;11.40;99.90
37642;DHT22;23486;51.956;5.888;2024-03-22T11:02:58;11.40;99.90
37642;DHT22;23486;51.956;5.888;2024-03-22T11:05:23;11.30;99.90
37642;DHT22;23486;51.956;5.888;2024-03-22T11:07:59;11.20;99.90
37642;DHT22;23486;51.956;5.888;2024-03-22T11:10:31;11.20;99.90
37642;DHT22;23486;51.956;5.888;2024-03-22T11:13:06;11.20;99.90
37642;DHT22;23486;51.956;5.888;2024-03-22T11:15:32;11.20;99.90
37642;DHT22;23486;51.956;5.888;2024-03-22T11:17:58;11.10;99.90
37642;DHT22;23486;51.956;5.888;2024-03-22T11:20:25;11.20;99.90
37642;DHT22;23486;51.956;5.888;2024-03-22T11:22:51;11.20;99.90
37642;DHT22;23486;51.956;5.888;2024-03-22T11:25:16;11.20;99.90
37642;DHT22;23486;51.956;5.888;2024-03-22T11:27:42;11.10;99.90
37642;DHT22;23486;51.956;5.888;2024-03-22T11:30:07;11.10;99.90
37642;DHT22;23486;51.956;5.888;2024-03-22T11:32:33;11.10;99.90
37642;DHT22;23486;51.956;5.888;2024-03-22T11:35:01;11.00;99.90
37642;DHT22;23486;51.956;5.888;2024-03-22T11:37:26;11.00;99.90
37642;DHT22;23486;51.956;5.888;2024-03-22T11:39:52;11.00;99.90
37642;DHT22;23486;51.956;5.888;2024-03-22T11:42:17;11.00;99.90
37642;DHT22;23486;51.956;5.888;2024-03-22T11:44:43;11.00;99.90
37642;DHT22;23486;51.956;5.888;2024-03-22T11:47:09;10.90;99.90
37642;DHT22;23486;51.956;5.888;2024-03-22T11:49:34;10.90;99.90
37642;DHT22;23486;51.956;5.888;2024-03-22T11:52:00;10.90;99.90
37642;DHT22;23486;51.956;5.888;2024-03-22T11:54:26;11.00;99.90
37642;DHT22;23486;51.956;5.888;2024-03-22T11:56:51;11.00;99.90
37642;DHT22;23486;51.956;5.888;2024-03-22T11:59:20;11.00;99.90
37642;DHT22;23486;51.956;5.888;2024-03-22T12:01:46;11.00;99.90
37642;DHT22;23486;51.956;5.888;2024-03-22T12:04:12;11.00;99.90
37642;DHT22;23486;51.956;5.888;2024-03-22T12:06:43;11.00;99.90
37642;DHT22;23486;51.956;5.888;2024-03-22T12:09:09;11.00;99.90
37642;DHT22;23486;51.956;5.888;2024-03-22T12:11:36;11.00;99.90
37642;DHT22;23486;51.956;5.888;2024-03-22T12:14:02;11.00;99.90
37642;DHT22;23486;51.956;5.888;2024-03-22T12:16:27;11.00;99.90
37642;DHT22;23486;51.956;5.888;2024-03-22T12:18:53;11.00;99.90
37642;DHT22;23486;51.956;5.888;2024-03-22T12:21:18;11.00;99.90
37642;DHT22;23486;51.956;5.888;2024-03-22T12:23:43;11.00;99.90
37642;DHT22;23486;51.956;5.888;2024-03-22T12:26:09;11.10;99.90
37642;DHT22;23486;51.956;5.888;2024-03-22T12:28:34;11.20;99.90
37642;DHT22;23486;51.956;5.888;2024-03-22T12:31:00;11.20;99.90
37642;DHT22;23486;51.956;5.888;2024-03-22T12:33:25;11.20;99.90
37642;DHT22;23486;51.956;5.888;2024-03-22T12:35:51;11.20;99.90
37642;DHT22;23486;51.956;5.888;2024-03-22T12:38:18;11.20;99.90
37642;DHT22;23486;51.956;5.888;2024-03-22T12:40:44;11.20;99.90
37642;DHT22;23486;51.956;5.888;2024-03-22T12:43:09;11.20;99.90
37642;DHT22;23486;51.956;5.888;2024-03-22T12:45:36;11.20;99.90
37642;DHT22;23486;51.956;5.888;2024-03-22T12:48:02;11.20;99.90
37642;DHT22;23486;51.956;5.888;2024-03-22T12:50:27;11.20;99.90
37642;DHT22;23486;51.956;5.888;2024-03-22T12:52:53;11.20;99.90
37642;DHT22;23486;51.956;5.888;2024-03-22T12:55:18;11.20;99.90
37642;DHT22;23486;51.956;5.888;2024-03-22T12:57:44;11.20;99.90
37642;DHT22;23486;51.956;5.888;2024-03-22T13:00:10;11.30;99.90
37642;DHT22;23486;51.956;5.888;2024-03-22T13:02:40;11.30;99.90
37642;DHT22;23486;51.956;5.888;2024-03-22T13:05:06;11.30;99.90
37642;DHT22;23486;51.956;5.888;2024-03-22T13:07:31;11.30;99.90
37642;DHT22;23486;51.956;5.888;2024-03-22T13:09:57;11.30;99.90
37642;DHT22;23486;51.956;5.888;2024-03-22T13:12:25;11.40;99.90
37642;DHT22;23486;51.956;5.888;2024-03-22T13:14:51;11.40;99.90
37642;DHT22;23486;51.956;5.888;2024-03-22T13:17:17;11.30;99.90
37642;DHT22;23486;51.956;5.888;2024-03-22T13:19:42;11.40;99.90
37642;DHT22;23486;51.956;5.888;2024-03-22T13:22:08;11.40;99.90
37642;DHT22;23486;51.956;5.888;2024-03-22T13:24:34;11.40;99.90
37642;DHT22;23486;51.956;5.888;2024-03-22T13:27:00;11.40;99.90
37642;DHT22;23486;51.956;5.888;2024-03-22T13:29:26;11.50;99.90
37642;DHT22;23486;51.956;5.888;2024-03-22T13:31:52;11.50;99.90
37642;DHT22;23486;51.956;5.888;2024-03-22T13:34:17;11.50;99.90
37642;DHT22;23486;51.956;5.888;2024-03-22T13:36:43;11.50;99.90
37642;DHT22;23486;51.956;5.888;2024-03-22T13:39:08;11.40;99.90
37642;DHT22;23486;51.956;5.888;2024-03-22T13:41:36;11.30;99.90
37642;DHT22;23486;51.956;5.888;2024-03-22T13:44:01;11.40;99.90
37642;DHT22;23486;51.956;5.888;2024-03-22T13:46:31;11.40;99.90
37642;DHT22;23486;51.956;5.888;2024-03-22T13:48:57;11.30;99.90
37642;DHT22;23486;51.956;5.888;2024-03-22T13:51:22;11.40;99.90
37642;DHT22;23486;51.956;5.888;2024-03-22T13:53:49;11.40;99.90
37642;DHT22;23486;51.956;5.888;2024-03-22T13:56:14;11.40;99.90
37642;DHT22;23486;51.956;5.888;2024-03-22T13:58:40;11.50;99.90
37642;DHT22;23486;51.956;5.888;2024-03-22T14:01:05;11.50;99.90
37642;DHT22;23486;51.956;5.888;2024-03-22T14:03:31;11.60;99.90
37642;DHT22;23486;51.956;5.888;2024-03-22T14:05:56;11.60;99.90
37642;DHT22;23486;51.956;5.888;2024-03-22T14:08:21;11.60;99.90
37642;DHT22;23486;51.956;5.888;2024-03-22T14:10:47;11.60;99.90
37642;DHT22;23486;51.956;5.888;2024-03-22T14:13:12;11.60;99.90
37642;DHT22;23486;51.956;5.888;2024-03-22T14:15:38;11.50;99.90
37642;DHT22;23486;51.956;5.888;2024-03-22T14:18:04;11.50;99.90
37642;DHT22;23486;51.956;5.888;2024-03-22T14:20:30;11.50;99.90
37642;DHT22;23486;51.956;5.888;2024-03-22T14:22:56;11.50;99.90
37642;DHT22;23486;51.956;5.888;2024-03-22T14:25:21;11.50;99.90
37642;DHT22;23486;51.956;5.888;2024-03-22T14:27:47;11.40;99.90
37642;DHT22;23486;51.956;5.888;2024-03-22T14:30:12;11.30;99.90
37642;DHT22;23486;51.956;5.888;2024-03-22T14:32:40;11.20;99.90
37642;DHT22;23486;51.956;5.888;2024-03-22T14:35:06;11.20;99.90
37642;DHT22;23486;51.956;5.888;2024-03-22T14:37:31;11.20;99.90
37642;DHT22;23486;51.956;5.888;2024-03-22T14:39:57;11.20;99.90
37642;DHT22;23486;51.956;5.888;2024-03-22T14:42:23;11.30;99.90
37642;DHT22;23486;51.956;5.888;2024-03-22T14:44:49;11.30;99.90
37642;DHT22;23486;51.956;5.888;2024-03-22T14:47:14;11.30;99.90
37642;DHT22;23486;51.956;5.888;2024-03-22T14:49:39;11.20;99.90
37642;DHT22;23486;51.956;5.888;2024-03-22T14:52:06;11.20;99.90
37642;DHT22;23486;51.956;5.888;2024-03-22T14:54:31;11.10;99.90
37642;DHT22;23486;51.956;5.888;2024-03-22T14:56:57;11.10;99.90
37642;DHT22;23486;51.956;5.888;2024-03-22T14:59:22;11.10;99.90
37642;DHT22;23486;51.956;5.888;2024-03-22T15:01:48;11.00;99.90
37642;DHT22;23486;51.956;5.888;2024-03-22T15:04:13;11.00;99.90
37642;DHT22;23486;51.956;5.888;2024-03-22T15:06:39;11.00;99.90
37642;DHT22;23486;51.956;5.888;2024-03-22T15:09:04;11.00;99.90
37642;DHT22;23486;51.956;5.888;2024-03-22T15:11:35;11.10;99.90
37642;DHT22;23486;51.956;5.888;2024-03-22T15:14:00;11.10;99.90
37642;DHT22;23486;51.956;5.888;2024-03-22T15:16:26;11.10;99.90
37642;DHT22;23486;51.956;5.888;2024-03-22T15:18:51;11.10;99.90
37642;DHT22;23486;51.956;5.888;2024-03-22T15:21:17;11.20;99.90